Time;durP1;ratioP1;P1;durP2;ratioP2;P2;SDS_P1;SDS_P2;PMS_P1;PMS_P2;Temp;Humidity;BMP_temperature;BMP_pressure;BME280_temperature;BME280_humidity;BME280_pressure;Samples;Min_cycle;Max_cycle;Signal;HPM_P1;HPM_P2
2024/02/21 00:02:11;;;;;;;99.28;62.33;;;;;;;;;;6310581;28;24434;-79
2024/02/21 00:05:13;;;;;;;102.28;63.33;;;;;;;;;;6318178;28;24426;-79
2024/02/21 00:08:14;;;;;;;96.38;60.40;;;;;;;;;;6319838;28;24434;-80
2024/02/21 00:11:15;;;;;;;96.60;60.25;;;;;;;;;;6318596;28;24649;-79
2024/02/21 00:14:24;;;;;;;93.03;59.58;;;;;;;;;;6317874;28;24422;-80
2024/02/21 00:17:26;;;;;;;96.30;59.03;;;;;;;;;;6315903;28;24429;-79
2024/02/21 00:20:27;;;;;;;93.88;58.90;;;;;;;;;;6320532;28;24468;-79
2024/02/21 00:23:29;;;;;;;96.03;59.70;;;;;;;;;;6318621;28;24830;-80
2024/02/21 00:26:30;;;;;;;97.07;60.67;;;;;;;;;;6313541;28;24423;-79
2024/02/21 00:29:34;;;;;;;97.75;58.53;;;;;;;;;;6315034;28;24430;-81
2024/02/21 00:32:35;;;;;;;93.70;57.47;;;;;;;;;;6316656;28;24805;-81
2024/02/21 00:35:37;;;;;;;91.78;57.00;;;;;;;;;;6317475;28;24436;-78
2024/02/21 00:38:38;;;;;;;92.50;56.42;;;;;;;;;;6316009;28;24837;-82
2024/02/21 00:41:39;;;;;;;92.37;57.33;;;;;;;;;;6314451;28;24431;-80
2024/02/21 00:44:42;;;;;;;90.47;57.08;;;;;;;;;;6314767;28;24479;-81
2024/02/21 00:47:44;;;;;;;87.38;55.95;;;;;;;;;;6316363;28;24783;-82
2024/02/21 00:50:45;;;;;;;86.28;55.97;;;;;;;;;;6315255;28;24433;-80
2024/02/21 00:53:47;;;;;;;86.13;55.03;;;;;;;;;;6315162;28;24460;-82
2024/02/21 00:56:48;;;;;;;87.50;55.20;;;;;;;;;;6314854;28;24410;-79
2024/02/21 00:59:51;;;;;;;87.60;54.53;;;;;;;;;;6314849;28;24433;-82
2024/02/21 01:02:52;;;;;;;86.47;53.97;;;;;;;;;;6313867;28;24440;-81
2024/02/21 01:05:54;;;;;;;85.88;54.28;;;;;;;;;;6314642;28;24957;-82
2024/02/21 01:08:55;;;;;;;85.78;53.25;;;;;;;;;;6313039;28;24835;-81
2024/02/21 01:11:57;;;;;;;87.00;53.80;;;;;;;;;;6313614;28;24441;-82
2024/02/21 01:14:59;;;;;;;89.37;55.27;;;;;;;;;;6314552;28;24469;-80
2024/02/21 01:18:01;;;;;;;88.23;54.40;;;;;;;;;;6314729;28;24434;-81
2024/02/21 01:21:02;;;;;;;85.93;53.42;;;;;;;;;;6315768;28;24423;-81
2024/02/21 01:24:04;;;;;;;86.45;54.03;;;;;;;;;;6316794;28;24860;-82
2024/02/21 01:27:05;;;;;;;85.50;54.17;;;;;;;;;;6311547;28;24433;-81
2024/02/21 01:30:10;;;;;;;89.53;54.55;;;;;;;;;;6311150;28;24430;-81
2024/02/21 01:33:12;;;;;;;87.80;55.03;;;;;;;;;;6314698;28;24436;-80
2024/02/21 01:36:13;;;;;;;91.83;54.67;;;;;;;;;;6314202;28;24796;-82
2024/02/21 01:39:14;;;;;;;81.90;52.17;;;;;;;;;;6314910;28;24578;-80
2024/02/21 01:42:16;;;;;;;82.95;51.15;;;;;;;;;;6315619;28;24867;-80
2024/02/21 01:45:19;;;;;;;80.57;50.85;;;;;;;;;;6309990;28;24445;-81
2024/02/21 01:48:20;;;;;;;81.40;49.53;;;;;;;;;;6314689;28;24429;-80
2024/02/21 01:51:22;;;;;;;79.78;50.45;;;;;;;;;;6312854;28;24679;-80
2024/02/21 01:54:23;;;;;;;78.22;47.38;;;;;;;;;;6315505;28;24626;-80
2024/02/21 01:57:25;;;;;;;75.70;47.25;;;;;;;;;;6315913;28;24709;-80
2024/02/21 02:00:28;;;;;;;75.03;46.72;;;;;;;;;;6314801;28;24618;-81
2024/02/21 02:03:30;;;;;;;73.03;44.15;;;;;;;;;;6312315;28;24864;-82
2024/02/21 02:06:32;;;;;;;72.17;45.17;;;;;;;;;;6314446;28;24476;-80
2024/02/21 02:09:33;;;;;;;70.27;43.50;;;;;;;;;;6318536;28;24426;-80
2024/02/21 02:12:35;;;;;;;69.78;43.30;;;;;;;;;;6318534;28;24434;-80
2024/02/21 02:15:41;;;;;;;70.65;43.50;;;;;;;;;;6314885;28;24443;-80
2024/02/21 02:18:43;;;;;;;69.32;42.25;;;;;;;;;;6314620;28;24537;-82
2024/02/21 02:21:47;;;;;;;68.63;42.13;;;;;;;;;;6318473;28;24435;-81
2024/02/21 02:24:50;;;;;;;67.85;41.55;;;;;;;;;;6320275;28;24429;-81
2024/02/21 02:27:52;;;;;;;69.05;42.13;;;;;;;;;;6320594;28;24426;-80
2024/02/21 02:30:53;;;;;;;69.17;43.00;;;;;;;;;;6322844;28;24509;-81
2024/02/21 02:33:55;;;;;;;70.93;42.63;;;;;;;;;;6317527;28;24513;-81
2024/02/21 02:36:56;;;;;;;68.03;42.88;;;;;;;;;;6320818;28;24442;-81
2024/02/21 02:39:59;;;;;;;69.53;42.38;;;;;;;;;;6320956;28;25066;-80
2024/02/21 02:43:01;;;;;;;67.80;41.67;;;;;;;;;;6317110;28;24824;-80
2024/02/21 02:46:02;;;;;;;68.47;41.88;;;;;;;;;;6315073;28;24410;-80
2024/02/21 02:49:03;;;;;;;69.65;42.63;;;;;;;;;;6318577;28;24856;-79
2024/02/21 02:52:05;;;;;;;71.87;43.10;;;;;;;;;;6313354;28;24896;-80
2024/02/21 02:55:08;;;;;;;68.87;42.53;;;;;;;;;;6312913;28;24434;-82
2024/02/21 02:58:10;;;;;;;65.15;40.92;;;;;;;;;;6320661;28;24453;-80
2024/02/21 03:01:11;;;;;;;69.50;42.20;;;;;;;;;;6317941;28;24463;-80
2024/02/21 03:04:13;;;;;;;67.17;40.77;;;;;;;;;;6310413;28;24852;-81
2024/02/21 03:07:14;;;;;;;64.43;40.03;;;;;;;;;;6317264;28;24437;-81
2024/02/21 03:10:17;;;;;;;66.78;39.95;;;;;;;;;;6315984;28;24419;-80
2024/02/21 03:13:19;;;;;;;63.47;37.67;;;;;;;;;;6317043;28;24448;-82
2024/02/21 03:16:20;;;;;;;59.63;36.97;;;;;;;;;;6316752;28;24809;-80
2024/02/21 03:19:22;;;;;;;56.83;35.25;;;;;;;;;;6312420;28;24442;-79
2024/02/21 03:22:23;;;;;;;56.50;34.30;;;;;;;;;;6318844;28;24505;-81
2024/02/21 03:25:26;;;;;;;55.35;33.22;;;;;;;;;;6319422;28;24445;-78
2024/02/21 03:28:28;;;;;;;50.72;31.27;;;;;;;;;;6318727;28;24430;-79
2024/02/21 03:31:29;;;;;;;49.20;29.05;;;;;;;;;;6314780;28;24411;-80
2024/02/21 03:34:31;;;;;;;48.42;29.05;;;;;;;;;;6317428;28;24411;-80
2024/02/21 03:37:32;;;;;;;46.83;29.02;;;;;;;;;;6323563;28;24408;-81
2024/02/21 03:40:35;;;;;;;44.85;27.70;;;;;;;;;;6319297;28;24414;-80
2024/02/21 03:43:38;;;;;;;43.70;26.73;;;;;;;;;;6316240;28;24477;-81
2024/02/21 03:46:39;;;;;;;46.10;26.73;;;;;;;;;;6319403;28;24724;-81
2024/02/21 03:49:41;;;;;;;41.25;25.80;;;;;;;;;;6318720;28;24506;-81
2024/02/21 03:52:43;;;;;;;43.53;26.80;;;;;;;;;;6315559;28;24534;-81
2024/02/21 03:55:45;;;;;;;43.30;26.60;;;;;;;;;;6316480;28;24868;-82
2024/02/21 03:58:47;;;;;;;42.58;25.20;;;;;;;;;;6312863;28;24419;-82
2024/02/21 04:01:52;;;;;;;40.20;24.35;;;;;;;;;;6317404;28;24418;-81
2024/02/21 04:04:53;;;;;;;39.55;24.45;;;;;;;;;;6316291;28;24436;-81
2024/02/21 04:07:54;;;;;;;43.47;25.02;;;;;;;;;;6317324;28;24425;-80
2024/02/21 04:10:57;;;;;;;40.78;25.35;;;;;;;;;;6317361;28;24430;-80
2024/02/21 04:13:59;;;;;;;40.50;24.70;;;;;;;;;;6314787;28;24470;-80
2024/02/21 04:17:00;;;;;;;42.97;25.05;;;;;;;;;;6315534;28;24418;-80
2024/02/21 04:20:07;;;;;;;40.90;24.90;;;;;;;;;;6318343;28;25196;-81
2024/02/21 04:23:09;;;;;;;41.05;24.30;;;;;;;;;;6315494;28;24826;-80
2024/02/21 04:26:11;;;;;;;44.53;26.60;;;;;;;;;;6314176;28;24423;-82
2024/02/21 04:29:13;;;;;;;39.60;25.65;;;;;;;;;;6314781;28;24509;-84
2024/02/21 04:32:14;;;;;;;39.10;24.70;;;;;;;;;;6317861;28;24429;-80
2024/02/21 04:35:16;;;;;;;43.17;25.85;;;;;;;;;;6314359;28;24642;-82
2024/02/21 04:38:18;;;;;;;39.65;24.20;;;;;;;;;;6315031;28;24418;-81
2024/02/21 04:41:20;;;;;;;40.53;24.65;;;;;;;;;;6313856;28;24453;-81
2024/02/21 04:44:22;;;;;;;36.28;22.98;;;;;;;;;;6317558;28;24422;-80
2024/02/21 04:47:24;;;;;;;37.80;23.10;;;;;;;;;;6316378;28;24659;-83
2024/02/21 04:50:27;;;;;;;36.83;22.73;;;;;;;;;;6316111;28;24420;-81
2024/02/21 04:53:28;;;;;;;40.08;24.25;;;;;;;;;;6314705;28;24444;-82
2024/02/21 04:56:31;;;;;;;39.63;24.23;;;;;;;;;;6313697;28;24445;-82
2024/02/21 04:59:34;;;;;;;38.60;23.20;;;;;;;;;;6314607;28;24430;-80
2024/02/21 05:02:36;;;;;;;38.97;23.27;;;;;;;;;;6316154;28;24821;-80
2024/02/21 05:05:37;;;;;;;38.45;23.75;;;;;;;;;;6315622;28;24410;-80
2024/02/21 05:08:39;;;;;;;36.80;22.73;;;;;;;;;;6313260;28;24438;-82
2024/02/21 05:11:42;;;;;;;41.35;22.55;;;;;;;;;;6313679;28;24495;-81
2024/02/21 05:14:43;;;;;;;37.65;22.75;;;;;;;;;;6315122;28;24426;-81
2024/02/21 05:17:44;;;;;;;37.00;22.63;;;;;;;;;;6315988;28;24422;-82
2024/02/21 05:20:46;;;;;;;37.28;23.08;;;;;;;;;;6314416;28;24946;-81
2024/02/21 05:23:47;;;;;;;36.40;22.27;;;;;;;;;;6315122;28;24514;-82
2024/02/21 05:26:50;;;;;;;36.55;22.77;;;;;;;;;;6313494;28;24414;-81
2024/02/21 05:29:52;;;;;;;37.87;22.63;;;;;;;;;;6315386;28;25078;-81
2024/02/21 05:32:53;;;;;;;38.85;22.58;;;;;;;;;;6318093;28;24807;-82
2024/02/21 05:35:54;;;;;;;35.15;21.90;;;;;;;;;;6312542;28;24425;-81
2024/02/21 05:38:57;;;;;;;38.78;22.80;;;;;;;;;;6316165;28;24845;-81
2024/02/21 05:42:00;;;;;;;38.45;22.30;;;;;;;;;;6314795;28;24429;-81
2024/02/21 05:45:01;;;;;;;39.08;23.08;;;;;;;;;;6313737;28;24714;-80
2024/02/21 05:48:03;;;;;;;35.42;21.90;;;;;;;;;;6315425;28;24610;-81
2024/02/21 05:51:05;;;;;;;31.60;19.10;;;;;;;;;;6314789;28;24422;-80
2024/02/21 05:54:07;;;;;;;26.50;16.38;;;;;;;;;;6314532;28;24430;-81
2024/02/21 05:57:10;;;;;;;24.03;15.13;;;;;;;;;;6315717;28;24442;-80
2024/02/21 06:00:12;;;;;;;25.77;15.18;;;;;;;;;;6314408;28;24419;-81
2024/02/21 06:03:13;;;;;;;22.90;14.13;;;;;;;;;;6314442;28;24433;-80
2024/02/21 06:06:15;;;;;;;25.13;14.27;;;;;;;;;;6315259;28;24418;-80
2024/02/21 06:09:16;;;;;;;22.17;13.15;;;;;;;;;;6314359;28;24419;-80
2024/02/21 06:12:19;;;;;;;21.13;12.73;;;;;;;;;;6312231;28;24415;-80
2024/02/21 06:15:20;;;;;;;20.23;11.85;;;;;;;;;;6311969;28;24417;-82
2024/02/21 06:18:22;;;;;;;21.60;12.63;;;;;;;;;;6315943;28;24422;-79
2024/02/21 06:21:23;;;;;;;21.70;12.45;;;;;;;;;;6317283;28;24422;-80
2024/02/21 06:24:25;;;;;;;22.88;12.77;;;;;;;;;;6318448;28;24450;-81
2024/02/21 06:27:28;;;;;;;21.77;12.88;;;;;;;;;;6313417;28;24445;-82
2024/02/21 06:30:29;;;;;;;23.40;13.50;;;;;;;;;;6314459;28;24426;-81
2024/02/21 06:33:30;;;;;;;22.85;13.35;;;;;;;;;;6313087;28;24602;-78
2024/02/21 06:36:32;;;;;;;22.65;13.57;;;;;;;;;;6313405;28;24453;-80
2024/02/21 06:39:33;;;;;;;23.40;13.80;;;;;;;;;;6314705;28;24422;-80
2024/02/21 06:42:36;;;;;;;22.80;12.88;;;;;;;;;;6314832;28;24435;-82
2024/02/21 06:45:38;;;;;;;21.77;12.83;;;;;;;;;;6313191;28;24461;-79
2024/02/21 06:48:39;;;;;;;21.55;12.07;;;;;;;;;;6314351;28;24810;-80
2024/02/21 06:51:41;;;;;;;24.67;13.25;;;;;;;;;;6316334;28;24431;-80
2024/02/21 06:54:42;;;;;;;20.15;12.55;;;;;;;;;;6315394;28;24429;-81
2024/02/21 06:57:45;;;;;;;23.70;13.18;;;;;;;;;;6318238;28;24442;-80
2024/02/21 07:00:46;;;;;;;23.05;13.70;;;;;;;;;;6313897;28;24419;-81
2024/02/21 07:03:48;;;;;;;23.30;14.00;;;;;;;;;;6315844;28;24442;-80
2024/02/21 07:06:49;;;;;;;24.10;14.45;;;;;;;;;;6319435;28;24840;-80
2024/02/21 07:09:51;;;;;;;25.30;14.77;;;;;;;;;;6314772;28;24800;-80
2024/02/21 07:12:54;;;;;;;33.25;17.60;;;;;;;;;;6317019;28;24417;-80
2024/02/21 07:15:55;;;;;;;28.25;17.40;;;;;;;;;;6312522;28;24430;-81
2024/02/21 07:18:58;;;;;;;28.97;16.97;;;;;;;;;;6319804;28;24430;-80
2024/02/21 07:21:59;;;;;;;30.15;17.80;;;;;;;;;;6317576;28;24698;-80
2024/02/21 07:25:00;;;;;;;28.90;17.85;;;;;;;;;;6314227;28;24429;-80
2024/02/21 07:28:03;;;;;;;31.08;18.08;;;;;;;;;;6315496;28;24426;-81
2024/02/21 07:31:05;;;;;;;29.33;17.67;;;;;;;;;;6315667;28;24455;-80
2024/02/21 07:34:06;;;;;;;28.10;17.30;;;;;;;;;;6320987;28;24410;-79
2024/02/21 07:37:08;;;;;;;29.42;17.65;;;;;;;;;;6319693;28;24798;-82
2024/02/21 07:40:13;;;;;;;30.27;18.57;;;;;;;;;;6319931;28;25114;-81
2024/02/21 07:43:16;;;;;;;31.05;18.25;;;;;;;;;;6316351;28;24430;-79
2024/02/21 07:46:17;;;;;;;29.15;18.70;;;;;;;;;;6315502;28;24450;-81
2024/02/21 07:49:19;;;;;;;28.25;17.90;;;;;;;;;;6320186;28;24398;-79
2024/02/21 07:52:20;;;;;;;29.33;18.27;;;;;;;;;;6314224;28;24437;-81
2024/02/21 07:55:22;;;;;;;28.10;17.37;;;;;;;;;;6314664;28;24477;-81
2024/02/21 07:58:25;;;;;;;26.63;17.42;;;;;;;;;;6316606;28;24467;-81
2024/02/21 08:01:26;;;;;;;24.45;15.57;;;;;;;;;;6317657;28;24445;-82
2024/02/21 08:04:27;;;;;;;25.75;16.02;;;;;;;;;;6316917;28;24398;-83
2024/02/21 08:07:30;;;;;;;23.75;14.13;;;;;;;;;;6316394;28;24602;-80
2024/02/21 08:10:32;;;;;;;24.10;14.25;;;;;;;;;;6315882;28;24416;-81
2024/02/21 08:13:35;;;;;;;21.77;13.60;;;;;;;;;;6316808;28;24413;-81
2024/02/21 08:16:36;;;;;;;23.15;14.27;;;;;;;;;;6317427;28;24790;-81
2024/02/21 08:19:37;;;;;;;21.02;13.75;;;;;;;;;;6314881;28;24415;-80
2024/02/21 08:22:39;;;;;;;24.73;14.80;;;;;;;;;;6314942;28;24511;-80
2024/02/21 08:25:40;;;;;;;22.60;14.18;;;;;;;;;;6317504;28;24407;-80
2024/02/21 08:28:43;;;;;;;23.35;14.43;;;;;;;;;;6313637;28;24417;-80
2024/02/21 08:31:45;;;;;;;22.30;14.48;;;;;;;;;;6316626;28;24421;-82
2024/02/21 08:34:46;;;;;;;23.00;14.95;;;;;;;;;;6317489;28;25184;-80
2024/02/21 08:37:48;;;;;;;26.15;14.93;;;;;;;;;;6312677;28;24422;-81
2024/02/21 08:40:49;;;;;;;24.25;14.55;;;;;;;;;;6313557;28;24653;-80
2024/02/21 08:43:53;;;;;;;24.33;14.73;;;;;;;;;;6314969;28;24445;-80
2024/02/21 08:46:55;;;;;;;25.35;14.95;;;;;;;;;;6319810;28;24460;-80
2024/02/21 08:49:56;;;;;;;23.47;15.10;;;;;;;;;;6314290;28;24433;-80
2024/02/21 08:52:58;;;;;;;23.77;14.82;;;;;;;;;;6315210;28;24426;-81
2024/02/21 08:56:00;;;;;;;25.23;15.00;;;;;;;;;;6319624;28;24414;-80
2024/02/21 08:59:03;;;;;;;22.10;14.00;;;;;;;;;;6317757;28;24496;-80
2024/02/21 09:02:07;;;;;;;22.23;13.32;;;;;;;;;;6317521;28;24421;-80
2024/02/21 09:05:08;;;;;;;19.40;12.77;;;;;;;;;;6314502;28;24617;-80
2024/02/21 09:08:10;;;;;;;17.98;11.38;;;;;;;;;;6314096;28;24843;-81
2024/02/21 09:11:11;;;;;;;21.02;12.63;;;;;;;;;;6317575;28;24415;-82
2024/02/21 09:14:14;;;;;;;21.30;12.35;;;;;;;;;;6315618;28;24428;-80
2024/02/21 09:17:17;;;;;;;20.20;12.80;;;;;;;;;;6311093;28;24858;-82
2024/02/21 09:20:18;;;;;;;21.85;13.55;;;;;;;;;;6317157;28;24418;-81
2024/02/21 09:23:20;;;;;;;21.77;13.82;;;;;;;;;;6316425;28;24422;-81
2024/02/21 09:26:21;;;;;;;21.33;14.38;;;;;;;;;;6317131;28;24464;-79
2024/02/21 09:29:24;;;;;;;23.60;14.25;;;;;;;;;;6313543;28;24423;-81
2024/02/21 09:32:26;;;;;;;22.00;14.68;;;;;;;;;;6315712;28;24460;-81
2024/02/21 09:35:28;;;;;;;23.23;14.18;;;;;;;;;;6313014;28;24439;-79
2024/02/21 09:38:29;;;;;;;21.75;13.57;;;;;;;;;;6314184;28;24431;-81
2024/02/21 09:41:31;;;;;;;22.07;13.70;;;;;;;;;;6310087;28;24418;-81
2024/02/21 09:44:37;;;;;;;20.70;14.73;;;;;;;;;;6315171;28;24810;-82
2024/02/21 09:47:43;;;;;;;19.07;13.63;;;;;;;;;;6315185;28;24417;-82
2024/02/21 09:50:46;;;;;;;20.90;14.30;;;;;;;;;;6316581;28;24426;-82
2024/02/21 09:53:48;;;;;;;21.57;13.97;;;;;;;;;;6310980;28;24637;-83
2024/02/21 09:56:50;;;;;;;21.48;14.38;;;;;;;;;;6317277;28;24445;-81
2024/02/21 09:59:53;;;;;;;21.80;14.05;;;;;;;;;;6314053;28;24735;-81
2024/02/21 10:02:55;;;;;;;21.23;14.80;;;;;;;;;;6310793;28;24840;-81
2024/02/21 10:05:58;;;;;;;23.85;16.63;;;;;;;;;;6310863;28;24864;-83
2024/02/21 10:09:00;;;;;;;22.83;14.90;;;;;;;;;;6316192;28;24426;-81
2024/02/21 10:12:08;;;;;;;21.15;15.25;;;;;;;;;;6313909;28;24863;-81
2024/02/21 10:15:11;;;;;;;21.52;15.23;;;;;;;;;;6312557;28;24450;-80
2024/02/21 10:18:13;;;;;;;22.73;15.27;;;;;;;;;;6314656;28;24430;-81
2024/02/21 10:21:14;;;;;;;25.50;17.73;;;;;;;;;;6315089;28;24419;-81
2024/02/21 10:24:16;;;;;;;25.50;17.77;;;;;;;;;;6311566;28;24457;-80
2024/02/21 10:27:17;;;;;;;26.35;17.95;;;;;;;;;;6311639;28;24433;-82
2024/02/21 10:30:21;;;;;;;27.90;18.40;;;;;;;;;;6314967;28;24409;-81
2024/02/21 10:33:24;;;;;;;33.00;21.73;;;;;;;;;;6319214;28;24418;-81
2024/02/21 10:36:25;;;;;;;31.00;22.00;;;;;;;;;;6318852;28;24419;-81
2024/02/21 10:39:27;;;;;;;31.80;22.35;;;;;;;;;;6319375;28;24430;-81
2024/02/21 10:42:30;;;;;;;30.77;22.03;;;;;;;;;;6317362;28;24425;-80
2024/02/21 10:45:35;;;;;;;29.90;21.25;;;;;;;;;;6317948;28;24858;-79
2024/02/21 10:48:42;;;;;;;31.77;22.80;;;;;;;;;;6318882;28;24886;-81
2024/02/21 10:51:44;;;;;;;28.95;20.83;;;;;;;;;;6319699;28;24425;-81
2024/02/21 10:54:47;;;;;;;31.37;22.73;;;;;;;;;;6321009;28;24441;-80
2024/02/21 10:57:49;;;;;;;31.63;21.63;;;;;;;;;;6316965;28;24430;-81
2024/02/21 11:00:52;;;;;;;33.08;23.50;;;;;;;;;;6319346;28;24426;-81
2024/02/21 11:03:54;;;;;;;31.95;23.40;;;;;;;;;;6321243;28;24580;-82
2024/02/21 11:06:56;;;;;;;32.80;23.63;;;;;;;;;;6317358;28;24418;-80
2024/02/21 11:09:58;;;;;;;33.70;23.57;;;;;;;;;;6316954;28;24453;-84
2024/02/21 11:13:06;;;;;;;34.55;24.00;;;;;;;;;;6320817;28;24615;-80
2024/02/21 11:16:10;;;;;;;31.02;22.33;;;;;;;;;;6319509;28;24669;-83
2024/02/21 11:19:20;;;;;;;28.38;20.63;;;;;;;;;;6319470;28;24472;-81
2024/02/21 11:22:22;;;;;;;30.70;22.02;;;;;;;;;;6318980;27;24435;-83
2024/02/21 11:25:24;;;;;;;31.43;22.33;;;;;;;;;;6323165;28;24425;-81
2024/02/21 11:28:26;;;;;;;29.45;22.02;;;;;;;;;;6318248;28;24414;-81
2024/02/21 11:31:38;;;;;;;28.27;20.35;;;;;;;;;;6316916;28;24667;-82
2024/02/21 11:34:40;;;;;;;27.67;20.67;;;;;;;;;;6317669;28;24884;-82
2024/02/21 11:37:45;;;;;;;32.93;22.83;;;;;;;;;;6318411;28;24418;-82
2024/02/21 11:40:47;;;;;;;30.27;22.27;;;;;;;;;;6316052;28;24848;-81
2024/02/21 11:43:50;;;;;;;33.30;24.35;;;;;;;;;;6316332;28;24501;-81
2024/02/21 11:46:53;;;;;;;38.55;27.40;;;;;;;;;;6317191;28;24693;-81
2024/02/21 11:49:54;;;;;;;33.78;24.92;;;;;;;;;;6315219;28;24786;-81
2024/02/21 11:52:56;;;;;;;33.93;25.27;;;;;;;;;;6319284;28;25136;-81
2024/02/21 11:55:57;;;;;;;33.38;25.13;;;;;;;;;;6312218;28;25011;-81
2024/02/21 11:58:59;;;;;;;39.45;28.95;;;;;;;;;;6317393;28;24892;-81
2024/02/21 12:02:04;;;;;;;38.33;28.30;;;;;;;;;;6316644;28;24415;-81
2024/02/21 12:05:05;;;;;;;32.97;24.83;;;;;;;;;;6316218;28;24434;-80
2024/02/21 12:08:07;;;;;;;31.02;23.02;;;;;;;;;;6315579;28;24406;-81
2024/02/21 12:11:16;;;;;;;38.30;28.65;;;;;;;;;;6312554;28;24978;-82
2024/02/21 12:14:18;;;;;;;38.40;29.63;;;;;;;;;;6318058;28;24423;-81
2024/02/21 12:17:21;;;;;;;35.05;27.38;;;;;;;;;;6313346;28;24415;-83
2024/02/21 12:20:22;;;;;;;33.08;25.50;;;;;;;;;;6315305;28;24467;-83
2024/02/21 12:23:27;;;;;;;33.28;25.90;;;;;;;;;;6314124;28;24418;-82
2024/02/21 12:26:29;;;;;;;37.47;28.90;;;;;;;;;;6313804;28;24781;-82
2024/02/21 12:29:31;;;;;;;38.13;29.60;;;;;;;;;;6316022;28;24421;-82
2024/02/21 12:32:33;;;;;;;36.33;27.75;;;;;;;;;;6313513;28;24422;-80
2024/02/21 12:35:35;;;;;;;44.90;34.00;;;;;;;;;;6315980;28;24781;-89
2024/02/21 12:38:36;;;;;;;48.95;36.78;;;;;;;;;;6320535;28;24493;-85
2024/02/21 12:41:40;;;;;;;72.80;50.25;;;;;;;;;;6319819;28;24433;-86
2024/02/21 12:44:42;;;;;;;84.93;55.85;;;;;;;;;;6320323;28;24851;-85
2024/02/21 12:47:44;;;;;;;89.47;55.57;;;;;;;;;;6316496;28;24494;-84
2024/02/21 12:50:49;;;;;;;63.47;42.57;;;;;;;;;;6319490;28;24442;-85
2024/02/21 12:53:51;;;;;;;66.63;44.73;;;;;;;;;;6318353;28;24426;-84
2024/02/21 12:56:52;;;;;;;55.08;37.92;;;;;;;;;;6315888;28;24796;-84
2024/02/21 12:59:54;;;;;;;72.63;47.80;;;;;;;;;;6316666;28;24441;-82
2024/02/21 13:02:57;;;;;;;58.15;40.22;;;;;;;;;;6313668;28;24479;-83
2024/02/21 13:05:59;;;;;;;49.40;36.47;;;;;;;;;;6315803;28;24411;-82
2024/02/21 13:09:03;;;;;;;38.10;28.40;;;;;;;;;;6315663;28;24537;-82
2024/02/21 13:12:05;;;;;;;36.83;28.02;;;;;;;;;;6314009;28;24415;-82
2024/02/21 13:15:07;;;;;;;33.15;25.20;;;;;;;;;;6315668;28;24442;-82
2024/02/21 13:18:10;;;;;;;30.87;24.17;;;;;;;;;;6323223;28;25059;-81
2024/02/21 13:21:11;;;;;;;34.30;26.48;;;;;;;;;;6316065;28;24430;-83
2024/02/21 13:24:13;;;;;;;34.17;26.10;;;;;;;;;;6312543;28;24426;-82
2024/02/21 13:27:14;;;;;;;35.58;28.52;;;;;;;;;;6310601;28;24438;-82
2024/02/21 13:30:17;;;;;;;31.55;25.10;;;;;;;;;;6310222;28;24422;-84
2024/02/21 13:33:20;;;;;;;29.65;24.05;;;;;;;;;;6314158;28;24477;-82
2024/02/21 13:36:22;;;;;;;30.65;23.40;;;;;;;;;;6315548;28;24615;-81
2024/02/21 13:39:23;;;;;;;30.58;24.30;;;;;;;;;;6316157;28;25265;-82
2024/02/21 13:42:27;;;;;;;34.25;27.52;;;;;;;;;;6312270;28;24806;-82
2024/02/21 13:45:28;;;;;;;34.75;27.30;;;;;;;;;;6316419;28;24428;-82
2024/02/21 13:48:33;;;;;;;40.13;30.50;;;;;;;;;;6312068;28;24485;-83
2024/02/21 13:51:35;;;;;;;33.03;26.10;;;;;;;;;;6310038;28;24449;-82
2024/02/21 13:54:37;;;;;;;34.05;26.67;;;;;;;;;;6314415;28;24863;-82
2024/02/21 13:57:38;;;;;;;38.00;28.98;;;;;;;;;;6316631;28;24425;-83
2024/02/21 14:00:40;;;;;;;42.83;32.97;;;;;;;;;;6316022;28;24844;-82
2024/02/21 14:03:43;;;;;;;35.95;28.13;;;;;;;;;;6313592;28;24437;-81
2024/02/21 14:06:44;;;;;;;34.60;26.27;;;;;;;;;;6319875;28;24503;-81
2024/02/21 14:09:46;;;;;;;34.33;27.77;;;;;;;;;;6318497;28;24429;-83
2024/02/21 14:12:47;;;;;;;45.90;33.57;;;;;;;;;;6318409;28;24529;-83
2024/02/21 14:15:49;;;;;;;40.10;29.83;;;;;;;;;;6318068;28;24809;-81
2024/02/21 14:18:53;;;;;;;37.38;28.65;;;;;;;;;;6318051;28;24452;-83
2024/02/21 14:21:56;;;;;;;42.53;32.20;;;;;;;;;;6319419;28;24430;-84
2024/02/21 14:24:57;;;;;;;42.50;33.10;;;;;;;;;;6319366;27;24813;-84
2024/02/21 14:28:00;;;;;;;41.42;31.05;;;;;;;;;;6321631;28;24832;-83
2024/02/21 14:31:03;;;;;;;40.97;30.85;;;;;;;;;;6314452;28;24421;-82
2024/02/21 14:34:07;;;;;;;37.42;28.55;;;;;;;;;;6315892;28;24423;-83
2024/02/21 14:37:09;;;;;;;33.95;26.20;;;;;;;;;;6321138;28;24449;-81
2024/02/21 14:40:11;;;;;;;35.42;27.15;;;;;;;;;;6319479;28;24461;-83
2024/02/21 14:43:12;;;;;;;38.25;29.08;;;;;;;;;;6322102;28;24905;-83
2024/02/21 14:46:14;;;;;;;34.72;26.48;;;;;;;;;;6318130;28;24646;-80
2024/02/21 14:49:16;;;;;;;30.93;24.37;;;;;;;;;;6323154;28;24794;-83
2024/02/21 14:52:21;;;;;;;32.97;25.30;;;;;;;;;;6318854;28;24453;-82
2024/02/21 14:55:22;;;;;;;38.70;29.45;;;;;;;;;;6313309;28;24661;-81
2024/02/21 14:58:24;;;;;;;36.30;28.10;;;;;;;;;;6319374;28;24422;-82
2024/02/21 15:01:25;;;;;;;35.67;26.70;;;;;;;;;;6319507;28;24448;-81
2024/02/21 15:04:28;;;;;;;36.63;27.13;;;;;;;;;;6317182;28;24421;-82
2024/02/21 15:07:30;;;;;;;37.78;28.77;;;;;;;;;;6317788;28;24410;-82
2024/02/21 15:10:31;;;;;;;40.00;28.98;;;;;;;;;;6321658;28;24488;-84
2024/02/21 15:13:32;;;;;;;45.22;33.75;;;;;;;;;;6319814;28;25115;-84
2024/02/21 15:16:34;;;;;;;45.03;33.55;;;;;;;;;;6318260;28;24418;-82
2024/02/21 15:19:38;;;;;;;40.75;30.00;;;;;;;;;;6320588;28;24407;-83
2024/02/21 15:22:40;;;;;;;90.80;62.63;;;;;;;;;;6316298;28;24417;-85
2024/02/21 15:25:43;;;;;;;127.10;84.13;;;;;;;;;;6315482;28;24406;-84
2024/02/21 15:28:44;;;;;;;130.48;81.80;;;;;;;;;;6314738;28;24537;-83
2024/02/21 15:31:46;;;;;;;115.25;72.18;;;;;;;;;;6322701;28;24622;-83
2024/02/21 15:34:49;;;;;;;92.60;58.57;;;;;;;;;;6318762;28;24869;-80
2024/02/21 15:37:50;;;;;;;77.45;50.33;;;;;;;;;;6319015;28;24418;-83
2024/02/21 15:40:52;;;;;;;93.47;59.53;;;;;;;;;;6316442;28;24407;-82
2024/02/21 15:43:54;;;;;;;83.55;55.72;;;;;;;;;;6318239;28;24860;-83
2024/02/21 15:46:56;;;;;;;62.50;42.97;;;;;;;;;;6317262;28;24537;-82
2024/02/21 15:50:00;;;;;;;51.42;36.53;;;;;;;;;;6317953;28;24684;-83
2024/02/21 15:53:02;;;;;;;42.63;31.63;;;;;;;;;;6321012;28;24433;-83
2024/02/21 15:56:03;;;;;;;41.78;31.40;;;;;;;;;;6317467;28;24614;-83
2024/02/21 15:59:05;;;;;;;40.07;29.73;;;;;;;;;;6317595;28;24564;-81
2024/02/21 16:02:06;;;;;;;42.83;32.15;;;;;;;;;;6318125;28;24422;-83
2024/02/21 16:05:10;;;;;;;49.72;34.67;;;;;;;;;;6320692;28;24852;-82
2024/02/21 16:08:11;;;;;;;46.05;32.92;;;;;;;;;;6318420;28;24468;-83
2024/02/21 16:11:15;;;;;;;45.03;32.60;;;;;;;;;;6320113;28;24419;-82
2024/02/21 16:14:18;;;;;;;46.00;32.83;;;;;;;;;;6321294;28;24422;-83
2024/02/21 16:17:19;;;;;;;45.88;32.55;;;;;;;;;;6321873;28;24430;-82
2024/02/21 16:20:22;;;;;;;49.30;34.33;;;;;;;;;;6317670;28;24445;-83
2024/02/21 16:23:24;;;;;;;46.67;33.88;;;;;;;;;;6316174;28;24713;-82
2024/02/21 16:26:26;;;;;;;47.70;33.93;;;;;;;;;;6313880;28;24421;-81
2024/02/21 16:29:27;;;;;;;46.88;33.50;;;;;;;;;;6315641;28;24683;-84
2024/02/21 16:32:29;;;;;;;51.07;35.80;;;;;;;;;;6319585;28;24841;-82
2024/02/21 16:35:31;;;;;;;51.80;36.00;;;;;;;;;;6315623;28;24539;-81
2024/02/21 16:38:33;;;;;;;52.25;35.78;;;;;;;;;;6316285;28;24440;-82
2024/02/21 16:41:35;;;;;;;51.63;35.55;;;;;;;;;;6314526;28;24414;-82
2024/02/21 16:44:36;;;;;;;52.35;36.17;;;;;;;;;;6312365;28;24418;-82
2024/02/21 16:47:38;;;;;;;55.00;35.70;;;;;;;;;;6316208;28;24423;-82
2024/02/21 16:50:41;;;;;;;56.97;37.10;;;;;;;;;;6318172;28;24630;-81
2024/02/21 16:53:42;;;;;;;53.10;35.60;;;;;;;;;;6313488;28;24422;-83
2024/02/21 16:56:44;;;;;;;54.25;35.42;;;;;;;;;;6317444;28;24782;-82
2024/02/21 16:59:46;;;;;;;53.50;35.47;;;;;;;;;;6317666;28;24452;-82
2024/02/21 17:02:48;;;;;;;51.55;35.03;;;;;;;;;;6317187;28;25126;-82
2024/02/21 17:05:51;;;;;;;56.50;36.92;;;;;;;;;;6317009;28;24423;-82
2024/02/21 17:08:54;;;;;;;58.65;39.47;;;;;;;;;;6317323;28;24472;-83
2024/02/21 17:11:56;;;;;;;58.00;37.92;;;;;;;;;;6320842;28;24407;-84
2024/02/21 17:14:57;;;;;;;58.42;37.90;;;;;;;;;;6314456;28;24430;-83
2024/02/21 17:17:59;;;;;;;62.00;40.77;;;;;;;;;;6316702;28;24916;-82
2024/02/21 17:21:02;;;;;;;56.03;37.85;;;;;;;;;;6317619;28;24459;-82
2024/02/21 17:24:04;;;;;;;59.22;38.67;;;;;;;;;;6314516;28;24429;-83
2024/02/21 17:27:05;;;;;;;59.15;38.50;;;;;;;;;;6319783;28;24438;-82
2024/02/21 17:30:08;;;;;;;59.28;39.13;;;;;;;;;;6319680;28;24418;-82
2024/02/21 17:33:09;;;;;;;63.03;41.30;;;;;;;;;;6318168;28;24497;-82
2024/02/21 17:36:13;;;;;;;62.37;39.50;;;;;;;;;;6313945;28;24516;-82
2024/02/21 17:39:14;;;;;;;63.83;41.03;;;;;;;;;;6316980;28;24839;-82